sensor_id;sensor_type;location;lat;lon;timestamp;P1;durP1;ratioP1;P2;durP2;ratioP2
8102;SDS011;4094;49.948;11.574;2024-03-02T00:00:18;34.30;;;30.60;;
8102;SDS011;4094;49.948;11.574;2024-03-02T00:03:09;37.77;;;31.80;;
8102;SDS011;4094;49.948;11.574;2024-03-02T00:06:02;35.53;;;30.70;;
8102;SDS011;4094;49.948;11.574;2024-03-02T00:08:57;34.67;;;30.03;;
8102;SDS011;4094;49.948;11.574;2024-03-02T00:11:47;35.50;;;30.43;;
8102;SDS011;4094;49.948;11.574;2024-03-02T00:14:38;34.80;;;31.07;;
8102;SDS011;4094;49.948;11.574;2024-03-02T00:17:27;33.23;;;29.73;;
8102;SDS011;4094;49.948;11.574;2024-03-02T00:20:17;34.17;;;30.47;;
8102;SDS011;4094;49.948;11.574;2024-03-02T00:23:16;33.10;;;29.43;;
8102;SDS011;4094;49.948;11.574;2024-03-02T00:26:07;33.20;;;29.60;;
8102;SDS011;4094;49.948;11.574;2024-03-02T00:29:01;33.50;;;28.93;;
8102;SDS011;4094;49.948;11.574;2024-03-02T00:31:51;33.10;;;29.57;;
8102;SDS011;4094;49.948;11.574;2024-03-02T00:34:42;35.57;;;31.60;;
8102;SDS011;4094;49.948;11.574;2024-03-02T00:37:32;39.67;;;30.87;;
8102;SDS011;4094;49.948;11.574;2024-03-02T00:40:21;34.63;;;30.77;;
8102;SDS011;4094;49.948;11.574;2024-03-02T00:43:12;37.53;;;31.17;;
8102;SDS011;4094;49.948;11.574;2024-03-02T00:46:23;35.17;;;31.37;;
8102;SDS011;4094;49.948;11.574;2024-03-02T00:49:16;35.27;;;31.30;;
8102;SDS011;4094;49.948;11.574;2024-03-02T00:52:09;36.40;;;30.60;;
8102;SDS011;4094;49.948;11.574;2024-03-02T00:54:59;34.83;;;31.03;;
8102;SDS011;4094;49.948;11.574;2024-03-02T00:57:48;34.00;;;30.13;;
8102;SDS011;4094;49.948;11.574;2024-03-02T01:00:37;33.97;;;29.97;;
8102;SDS011;4094;49.948;11.574;2024-03-02T01:03:27;35.73;;;30.70;;
8102;SDS011;4094;49.948;11.574;2024-03-02T01:06:18;34.67;;;31.03;;
8102;SDS011;4094;49.948;11.574;2024-03-02T01:09:08;35.77;;;29.83;;
8102;SDS011;4094;49.948;11.574;2024-03-02T01:11:57;36.60;;;31.10;;
8102;SDS011;4094;49.948;11.574;2024-03-02T01:14:46;36.47;;;30.77;;
8102;SDS011;4094;49.948;11.574;2024-03-02T01:17:36;34.37;;;30.13;;
8102;SDS011;4094;49.948;11.574;2024-03-02T01:20:25;36.40;;;30.90;;
8102;SDS011;4094;49.948;11.574;2024-03-02T01:23:17;34.50;;;30.83;;
8102;SDS011;4094;49.948;11.574;2024-03-02T01:26:07;33.63;;;29.90;;
8102;SDS011;4094;49.948;11.574;2024-03-02T01:28:56;34.03;;;30.37;;
8102;SDS011;4094;49.948;11.574;2024-03-02T01:31:45;35.17;;;30.47;;
8102;SDS011;4094;49.948;11.574;2024-03-02T01:34:35;33.70;;;30.10;;
8102;SDS011;4094;49.948;11.574;2024-03-02T01:37:24;35.20;;;30.43;;
8102;SDS011;4094;49.948;11.574;2024-03-02T01:40:15;35.00;;;31.03;;
8102;SDS011;4094;49.948;11.574;2024-03-02T01:43:05;34.87;;;31.07;;
8102;SDS011;4094;49.948;11.574;2024-03-02T01:45:57;33.83;;;30.10;;
8102;SDS011;4094;49.948;11.574;2024-03-02T01:48:47;33.97;;;30.37;;
8102;SDS011;4094;49.948;11.574;2024-03-02T01:51:36;33.27;;;29.67;;
8102;SDS011;4094;49.948;11.574;2024-03-02T01:54:25;33.43;;;28.80;;
8102;SDS011;4094;49.948;11.574;2024-03-02T01:57:17;32.30;;;28.90;;
8102;SDS011;4094;49.948;11.574;2024-03-02T02:00:07;33.40;;;29.90;;
8102;SDS011;4094;49.948;11.574;2024-03-02T02:03:00;35.23;;;30.33;;
8102;SDS011;4094;49.948;11.574;2024-03-02T02:05:49;34.77;;;31.07;;
8102;SDS011;4094;49.948;11.574;2024-03-02T02:08:38;33.50;;;29.87;;
8102;SDS011;4094;49.948;11.574;2024-03-02T02:11:28;36.03;;;31.33;;
8102;SDS011;4094;49.948;11.574;2024-03-02T02:14:19;35.27;;;30.83;;
8102;SDS011;4094;49.948;11.574;2024-03-02T02:17:08;34.20;;;29.57;;
8102;SDS011;4094;49.948;11.574;2024-03-02T02:19:57;36.07;;;31.07;;
8102;SDS011;4094;49.948;11.574;2024-03-02T02:22:55;35.73;;;31.57;;
8102;SDS011;4094;49.948;11.574;2024-03-02T02:25:45;35.90;;;30.57;;
8102;SDS011;4094;49.948;11.574;2024-03-02T02:28:34;34.20;;;30.63;;
8102;SDS011;4094;49.948;11.574;2024-03-02T02:31:23;35.77;;;31.27;;
8102;SDS011;4094;49.948;11.574;2024-03-02T02:34:13;36.10;;;32.07;;
8102;SDS011;4094;49.948;11.574;2024-03-02T02:37:03;34.20;;;30.37;;
8102;SDS011;4094;49.948;11.574;2024-03-02T02:39:53;36.10;;;30.83;;
8102;SDS011;4094;49.948;11.574;2024-03-02T02:42:42;35.03;;;31.23;;
8102;SDS011;4094;49.948;11.574;2024-03-02T02:45:32;37.63;;;31.53;;
8102;SDS011;4094;49.948;11.574;2024-03-02T02:48:21;34.10;;;30.37;;
8102;SDS011;4094;49.948;11.574;2024-03-02T02:51:10;34.37;;;30.77;;
8102;SDS011;4094;49.948;11.574;2024-03-02T02:53:59;37.93;;;32.97;;
8102;SDS011;4094;49.948;11.574;2024-03-02T02:56:50;37.27;;;31.73;;
8102;SDS011;4094;49.948;11.574;2024-03-02T02:59:39;39.70;;;32.73;;
8102;SDS011;4094;49.948;11.574;2024-03-02T03:02:28;35.63;;;29.97;;
8102;SDS011;4094;49.948;11.574;2024-03-02T03:05:17;33.93;;;30.30;;
8102;SDS011;4094;49.948;11.574;2024-03-02T03:08:07;34.70;;;30.90;;
8102;SDS011;4094;49.948;11.574;2024-03-02T03:10:56;35.63;;;31.07;;
8102;SDS011;4094;49.948;11.574;2024-03-02T03:13:47;37.60;;;32.07;;
8102;SDS011;4094;49.948;11.574;2024-03-02T03:16:36;35.83;;;31.20;;
8102;SDS011;4094;49.948;11.574;2024-03-02T03:19:25;35.70;;;31.47;;
8102;SDS011;4094;49.948;11.574;2024-03-02T03:22:14;36.03;;;31.33;;
8102;SDS011;4094;49.948;11.574;2024-03-02T03:25:03;36.50;;;31.53;;
8102;SDS011;4094;49.948;11.574;2024-03-02T03:27:54;37.00;;;31.80;;
8102;SDS011;4094;49.948;11.574;2024-03-02T03:30:46;37.67;;;30.73;;
8102;SDS011;4094;49.948;11.574;2024-03-02T03:33:35;34.53;;;30.73;;
8102;SDS011;4094;49.948;11.574;2024-03-02T03:36:24;36.27;;;32.43;;
8102;SDS011;4094;49.948;11.574;2024-03-02T03:39:13;33.57;;;29.97;;
8102;SDS011;4094;49.948;11.574;2024-03-02T03:42:03;37.23;;;31.33;;
8102;SDS011;4094;49.948;11.574;2024-03-02T03:44:52;36.33;;;31.57;;
8102;SDS011;4094;49.948;11.574;2024-03-02T03:47:43;36.10;;;31.30;;
8102;SDS011;4094;49.948;11.574;2024-03-02T03:50:32;35.90;;;31.27;;
8102;SDS011;4094;49.948;11.574;2024-03-02T03:53:22;34.30;;;30.87;;
8102;SDS011;4094;49.948;11.574;2024-03-02T03:56:11;36.43;;;31.00;;
8102;SDS011;4094;49.948;11.574;2024-03-02T03:59:00;35.43;;;31.53;;
8102;SDS011;4094;49.948;11.574;2024-03-02T04:01:50;33.23;;;29.73;;
8102;SDS011;4094;49.948;11.574;2024-03-02T04:04:40;35.17;;;31.07;;
8102;SDS011;4094;49.948;11.574;2024-03-02T04:07:31;36.33;;;31.13;;
8102;SDS011;4094;49.948;11.574;2024-03-02T04:10:20;36.17;;;31.37;;
8102;SDS011;4094;49.948;11.574;2024-03-02T04:13:09;35.07;;;31.40;;
8102;SDS011;4094;49.948;11.574;2024-03-02T04:15:59;36.10;;;31.03;;
8102;SDS011;4094;49.948;11.574;2024-03-02T04:18:48;36.00;;;30.87;;
8102;SDS011;4094;49.948;11.574;2024-03-02T04:21:38;35.00;;;31.20;;
8102;SDS011;4094;49.948;11.574;2024-03-02T04:24:28;34.70;;;30.93;;
8102;SDS011;4094;49.948;11.574;2024-03-02T04:27:17;34.70;;;30.80;;
8102;SDS011;4094;49.948;11.574;2024-03-02T04:30:07;34.77;;;31.00;;
8102;SDS011;4094;49.948;11.574;2024-03-02T04:32:56;33.90;;;30.30;;
8102;SDS011;4094;49.948;11.574;2024-03-02T04:35:45;34.63;;;30.93;;
8102;SDS011;4094;49.948;11.574;2024-03-02T04:38:36;36.20;;;32.20;;
8102;SDS011;4094;49.948;11.574;2024-03-02T04:41:25;35.53;;;31.73;;
8102;SDS011;4094;49.948;11.574;2024-03-02T04:44:15;34.37;;;30.77;;
8102;SDS011;4094;49.948;11.574;2024-03-02T04:47:04;34.33;;;30.43;;
8102;SDS011;4094;49.948;11.574;2024-03-02T04:49:53;36.63;;;31.90;;
8102;SDS011;4094;49.948;11.574;2024-03-02T04:52:42;34.67;;;31.00;;
8102;SDS011;4094;49.948;11.574;2024-03-02T04:55:33;33.27;;;29.70;;
8102;SDS011;4094;49.948;11.574;2024-03-02T04:58:57;32.80;;;29.40;;
8102;SDS011;4094;49.948;11.574;2024-03-02T05:01:46;34.00;;;30.10;;
8102;SDS011;4094;49.948;11.574;2024-03-02T05:04:35;33.37;;;29.97;;
8102;SDS011;4094;49.948;11.574;2024-03-02T05:07:25;32.57;;;29.17;;
8102;SDS011;4094;49.948;11.574;2024-03-02T05:10:14;33.67;;;30.03;;
8102;SDS011;4094;49.948;11.574;2024-03-02T05:13:04;34.70;;;30.17;;
8102;SDS011;4094;49.948;11.574;2024-03-02T05:15:54;30.97;;;27.83;;
8102;SDS011;4094;49.948;11.574;2024-03-02T05:18:47;32.50;;;29.17;;
8102;SDS011;4094;49.948;11.574;2024-03-02T05:21:36;30.93;;;27.67;;
8102;SDS011;4094;49.948;11.574;2024-03-02T05:24:25;32.23;;;28.63;;
8102;SDS011;4094;49.948;11.574;2024-03-02T05:27:15;31.93;;;27.10;;
8102;SDS011;4094;49.948;11.574;2024-03-02T05:30:06;31.80;;;28.43;;
8102;SDS011;4094;49.948;11.574;2024-03-02T05:32:57;30.43;;;27.23;;
8102;SDS011;4094;49.948;11.574;2024-03-02T05:35:46;31.03;;;27.83;;
8102;SDS011;4094;49.948;11.574;2024-03-02T05:38:37;30.73;;;27.73;;
8102;SDS011;4094;49.948;11.574;2024-03-02T05:41:26;30.23;;;27.07;;
8102;SDS011;4094;49.948;11.574;2024-03-02T05:44:15;30.63;;;27.60;;
8102;SDS011;4094;49.948;11.574;2024-03-02T05:47:07;30.47;;;27.47;;
8102;SDS011;4094;49.948;11.574;2024-03-02T05:49:56;30.03;;;27.13;;
8102;SDS011;4094;49.948;11.574;2024-03-02T05:52:45;29.30;;;26.30;;
8102;SDS011;4094;49.948;11.574;2024-03-02T05:55:34;29.77;;;26.87;;
8102;SDS011;4094;49.948;11.574;2024-03-02T05:58:23;28.60;;;25.90;;
8102;SDS011;4094;49.948;11.574;2024-03-02T06:01:25;29.03;;;26.23;;
8102;SDS011;4094;49.948;11.574;2024-03-02T06:04:17;29.83;;;26.87;;
8102;SDS011;4094;49.948;11.574;2024-03-02T06:07:06;27.97;;;25.13;;
8102;SDS011;4094;49.948;11.574;2024-03-02T06:09:55;27.37;;;24.77;;
8102;SDS011;4094;49.948;11.574;2024-03-02T06:12:46;26.90;;;24.33;;
8102;SDS011;4094;49.948;11.574;2024-03-02T06:15:35;27.27;;;24.70;;
8102;SDS011;4094;49.948;11.574;2024-03-02T06:18:24;25.93;;;23.50;;
8102;SDS011;4094;49.948;11.574;2024-03-02T06:21:15;26.27;;;23.80;;
8102;SDS011;4094;49.948;11.574;2024-03-02T06:24:04;26.43;;;23.93;;
8102;SDS011;4094;49.948;11.574;2024-03-02T06:26:53;25.17;;;22.77;;
8102;SDS011;4094;49.948;11.574;2024-03-02T06:29:43;24.30;;;22.00;;
8102;SDS011;4094;49.948;11.574;2024-03-02T06:32:32;24.50;;;22.20;;
8102;SDS011;4094;49.948;11.574;2024-03-02T06:35:23;24.23;;;21.93;;
8102;SDS011;4094;49.948;11.574;2024-03-02T06:38:13;24.33;;;22.03;;
8102;SDS011;4094;49.948;11.574;2024-03-02T06:41:02;23.70;;;21.60;;
8102;SDS011;4094;49.948;11.574;2024-03-02T06:43:52;22.93;;;20.93;;
8102;SDS011;4094;49.948;11.574;2024-03-02T06:46:46;23.00;;;21.00;;
8102;SDS011;4094;49.948;11.574;2024-03-02T06:49:36;22.30;;;20.17;;
8102;SDS011;4094;49.948;11.574;2024-03-02T06:52:25;21.00;;;19.20;;
8102;SDS011;4094;49.948;11.574;2024-03-02T06:55:16;21.37;;;19.47;;
8102;SDS011;4094;49.948;11.574;2024-03-02T06:58:05;20.53;;;18.73;;
8102;SDS011;4094;49.948;11.574;2024-03-02T07:00:54;20.20;;;18.57;;
8102;SDS011;4094;49.948;11.574;2024-03-02T07:03:44;20.10;;;18.40;;
8102;SDS011;4094;49.948;11.574;2024-03-02T07:06:33;19.27;;;17.60;;
8102;SDS011;4094;49.948;11.574;2024-03-02T07:09:22;18.70;;;17.20;;
8102;SDS011;4094;49.948;11.574;2024-03-02T07:12:12;19.83;;;18.03;;
8102;SDS011;4094;49.948;11.574;2024-03-02T07:15:02;19.23;;;17.50;;
8102;SDS011;4094;49.948;11.574;2024-03-02T07:18:16;19.40;;;17.87;;
8102;SDS011;4094;49.948;11.574;2024-03-02T07:21:05;19.07;;;17.57;;
8102;SDS011;4094;49.948;11.574;2024-03-02T07:23:55;18.20;;;16.80;;
8102;SDS011;4094;49.948;11.574;2024-03-02T07:26:44;20.00;;;18.40;;
8102;SDS011;4094;49.948;11.574;2024-03-02T07:29:38;18.83;;;17.33;;
8102;SDS011;4094;49.948;11.574;2024-03-02T07:32:27;18.30;;;16.87;;
8102;SDS011;4094;49.948;11.574;2024-03-02T07:35:16;20.17;;;18.47;;
8102;SDS011;4094;49.948;11.574;2024-03-02T07:38:06;18.53;;;17.03;;
8102;SDS011;4094;49.948;11.574;2024-03-02T07:40:55;18.97;;;17.37;;
8102;SDS011;4094;49.948;11.574;2024-03-02T07:43:45;18.13;;;16.73;;
8102;SDS011;4094;49.948;11.574;2024-03-02T07:46:35;19.80;;;18.10;;
8102;SDS011;4094;49.948;11.574;2024-03-02T07:49:24;20.93;;;19.13;;
8102;SDS011;4094;49.948;11.574;2024-03-02T07:52:14;20.43;;;18.67;;
8102;SDS011;4094;49.948;11.574;2024-03-02T07:55:03;19.70;;;18.00;;
8102;SDS011;4094;49.948;11.574;2024-03-02T07:57:53;19.63;;;18.03;;
8102;SDS011;4094;49.948;11.574;2024-03-02T08:00:42;19.90;;;18.27;;
8102;SDS011;4094;49.948;11.574;2024-03-02T08:03:32;20.80;;;19.00;;
8102;SDS011;4094;49.948;11.574;2024-03-02T08:06:23;20.50;;;18.70;;
8102;SDS011;4094;49.948;11.574;2024-03-02T08:09:14;20.63;;;18.73;;
8102;SDS011;4094;49.948;11.574;2024-03-02T08:12:04;21.20;;;19.40;;
8102;SDS011;4094;49.948;11.574;2024-03-02T08:14:53;20.80;;;19.07;;
8102;SDS011;4094;49.948;11.574;2024-03-02T08:17:42;21.80;;;19.80;;
8102;SDS011;4094;49.948;11.574;2024-03-02T08:20:38;21.23;;;19.33;;
8102;SDS011;4094;49.948;11.574;2024-03-02T08:23:27;20.80;;;18.90;;
8102;SDS011;4094;49.948;11.574;2024-03-02T08:26:16;21.43;;;19.57;;
8102;SDS011;4094;49.948;11.574;2024-03-02T08:29:05;22.37;;;20.30;;
8102;SDS011;4094;49.948;11.574;2024-03-02T08:31:54;20.77;;;19.07;;
8102;SDS011;4094;49.948;11.574;2024-03-02T08:34:43;20.40;;;18.60;;
8102;SDS011;4094;49.948;11.574;2024-03-02T08:37:34;21.00;;;19.10;;
8102;SDS011;4094;49.948;11.574;2024-03-02T08:40:25;20.70;;;18.83;;
8102;SDS011;4094;49.948;11.574;2024-03-02T08:43:14;20.67;;;18.77;;
8102;SDS011;4094;49.948;11.574;2024-03-02T08:46:04;20.10;;;18.40;;
8102;SDS011;4094;49.948;11.574;2024-03-02T08:48:53;19.67;;;17.87;;
8102;SDS011;4094;49.948;11.574;2024-03-02T08:51:43;19.87;;;18.17;;
8102;SDS011;4094;49.948;11.574;2024-03-02T08:54:33;20.20;;;18.53;;
8102;SDS011;4094;49.948;11.574;2024-03-02T08:57:23;19.13;;;17.53;;
8102;SDS011;4094;49.948;11.574;2024-03-02T09:00:13;19.67;;;18.00;;
8102;SDS011;4094;49.948;11.574;2024-03-02T09:03:02;19.63;;;17.93;;
8102;SDS011;4094;49.948;11.574;2024-03-02T09:05:52;19.47;;;17.87;;
8102;SDS011;4094;49.948;11.574;2024-03-02T09:08:41;19.03;;;17.43;;
8102;SDS011;4094;49.948;11.574;2024-03-02T09:11:31;19.60;;;17.80;;
8102;SDS011;4094;49.948;11.574;2024-03-02T09:14:20;19.67;;;17.97;;
8102;SDS011;4094;49.948;11.574;2024-03-02T09:17:10;18.57;;;17.07;;
8102;SDS011;4094;49.948;11.574;2024-03-02T09:19:59;18.97;;;17.37;;
8102;SDS011;4094;49.948;11.574;2024-03-02T09:22:48;18.13;;;16.53;;
8102;SDS011;4094;49.948;11.574;2024-03-02T09:25:38;19.43;;;17.83;;
8102;SDS011;4094;49.948;11.574;2024-03-02T09:28:28;18.97;;;17.37;;
8102;SDS011;4094;49.948;11.574;2024-03-02T09:31:17;17.37;;;15.87;;
8102;SDS011;4094;49.948;11.574;2024-03-02T09:34:06;17.83;;;16.33;;
8102;SDS011;4094;49.948;11.574;2024-03-02T09:36:56;17.07;;;15.67;;
8102;SDS011;4094;49.948;11.574;2024-03-02T09:39:45;17.10;;;15.70;;
8102;SDS011;4094;49.948;11.574;2024-03-02T09:42:34;17.03;;;15.63;;
8102;SDS011;4094;49.948;11.574;2024-03-02T09:45:25;15.90;;;14.60;;
8102;SDS011;4094;49.948;11.574;2024-03-02T09:48:15;16.67;;;15.27;;
8102;SDS011;4094;49.948;11.574;2024-03-02T09:51:06;16.03;;;14.63;;
8102;SDS011;4094;49.948;11.574;2024-03-02T09:53:59;15.27;;;13.97;;
8102;SDS011;4094;49.948;11.574;2024-03-02T09:57:04;15.60;;;14.30;;
8102;SDS011;4094;49.948;11.574;2024-03-02T09:59:53;15.33;;;14.13;;
8102;SDS011;4094;49.948;11.574;2024-03-02T10:02:44;15.30;;;14.00;;
8102;SDS011;4094;49.948;11.574;2024-03-02T10:05:36;14.80;;;13.60;;
8102;SDS011;4094;49.948;11.574;2024-03-02T10:08:25;14.30;;;13.10;;
8102;SDS011;4094;49.948;11.574;2024-03-02T10:11:26;13.43;;;12.43;;
8102;SDS011;4094;49.948;11.574;2024-03-02T10:14:17;12.80;;;11.80;;
8102;SDS011;4094;49.948;11.574;2024-03-02T10:17:06;12.63;;;11.73;;
8102;SDS011;4094;49.948;11.574;2024-03-02T10:19:58;13.87;;;12.77;;
8102;SDS011;4094;49.948;11.574;2024-03-02T10:22:47;13.27;;;12.17;;
8102;SDS011;4094;49.948;11.574;2024-03-02T10:25:36;12.77;;;11.73;;
8102;SDS011;4094;49.948;11.574;2024-03-02T10:28:39;13.67;;;12.57;;
8102;SDS011;4094;49.948;11.574;2024-03-02T10:31:36;13.83;;;12.73;;
8102;SDS011;4094;49.948;11.574;2024-03-02T10:34:26;13.27;;;12.23;;
8102;SDS011;4094;49.948;11.574;2024-03-02T10:37:17;13.07;;;11.87;;
8102;SDS011;4094;49.948;11.574;2024-03-02T10:40:06;12.70;;;11.67;;
8102;SDS011;4094;49.948;11.574;2024-03-02T10:42:59;12.57;;;11.53;;
8102;SDS011;4094;49.948;11.574;2024-03-02T10:45:53;13.77;;;12.57;;
8102;SDS011;4094;49.948;11.574;2024-03-02T10:48:44;14.07;;;12.83;;
8102;SDS011;4094;49.948;11.574;2024-03-02T10:51:35;14.33;;;13.03;;
8102;SDS011;4094;49.948;11.574;2024-03-02T10:54:26;14.33;;;13.13;;
8102;SDS011;4094;49.948;11.574;2024-03-02T10:57:17;15.17;;;13.87;;
8102;SDS011;4094;49.948;11.574;2024-03-02T11:00:11;16.37;;;14.87;;
8102;SDS011;4094;49.948;11.574;2024-03-02T11:03:04;15.27;;;13.87;;
8102;SDS011;4094;49.948;11.574;2024-03-02T11:05:56;15.80;;;14.40;;
8102;SDS011;4094;49.948;11.574;2024-03-02T11:08:48;15.10;;;13.80;;
8102;SDS011;4094;49.948;11.574;2024-03-02T11:11:40;14.90;;;13.60;;
8102;SDS011;4094;49.948;11.574;2024-03-02T11:14:31;17.60;;;16.00;;
8102;SDS011;4094;49.948;11.574;2024-03-02T11:17:21;16.67;;;15.07;;
8102;SDS011;4094;49.948;11.574;2024-03-02T11:20:12;16.83;;;15.30;;
8102;SDS011;4094;49.948;11.574;2024-03-02T11:23:06;17.83;;;16.03;;
8102;SDS011;4094;49.948;11.574;2024-03-02T11:26:09;18.83;;;17.10;;
8102;SDS011;4094;49.948;11.574;2024-03-02T11:29:07;18.60;;;16.80;;
8102;SDS011;4094;49.948;11.574;2024-03-02T11:31:57;19.33;;;17.53;;
8102;SDS011;4094;49.948;11.574;2024-03-02T11:34:48;19.87;;;17.90;;
8102;SDS011;4094;49.948;11.574;2024-03-02T11:37:37;19.23;;;17.33;;
8102;SDS011;4094;49.948;11.574;2024-03-02T11:40:27;18.07;;;16.30;;
8102;SDS011;4094;49.948;11.574;2024-03-02T11:43:16;18.87;;;16.97;;
8102;SDS011;4094;49.948;11.574;2024-03-02T11:46:07;17.77;;;16.10;;
8102;SDS011;4094;49.948;11.574;2024-03-02T11:48:57;20.57;;;18.43;;
8102;SDS011;4094;49.948;11.574;2024-03-02T11:51:50;19.77;;;17.67;;
8102;SDS011;4094;49.948;11.574;2024-03-02T11:54:49;19.20;;;17.40;;
8102;SDS011;4094;49.948;11.574;2024-03-02T11:57:39;18.53;;;16.63;;
8102;SDS011;4094;49.948;11.574;2024-03-02T12:00:28;20.20;;;18.10;;
8102;SDS011;4094;49.948;11.574;2024-03-02T12:03:20;19.53;;;17.63;;
8102;SDS011;4094;49.948;11.574;2024-03-02T12:06:10;20.20;;;18.10;;
8102;SDS011;4094;49.948;11.574;2024-03-02T12:09:01;19.70;;;17.80;;
8102;SDS011;4094;49.948;11.574;2024-03-02T12:12:00;18.97;;;17.13;;
8102;SDS011;4094;49.948;11.574;2024-03-02T12:14:52;18.57;;;16.77;;
8102;SDS011;4094;49.948;11.574;2024-03-02T12:17:46;19.17;;;17.27;;
8102;SDS011;4094;49.948;11.574;2024-03-02T12:20:37;18.90;;;17.03;;
8102;SDS011;4094;49.948;11.574;2024-03-02T12:23:26;17.23;;;15.60;;
8102;SDS011;4094;49.948;11.574;2024-03-02T12:26:15;16.30;;;14.70;;
8102;SDS011;4094;49.948;11.574;2024-03-02T12:29:04;17.87;;;16.03;;
8102;SDS011;4094;49.948;11.574;2024-03-02T12:31:54;17.33;;;15.50;;
8102;SDS011;4094;49.948;11.574;2024-03-02T12:34:46;16.97;;;15.27;;
8102;SDS011;4094;49.948;11.574;2024-03-02T12:37:42;17.40;;;15.60;;
8102;SDS011;4094;49.948;11.574;2024-03-02T12:40:32;16.23;;;14.60;;
8102;SDS011;4094;49.948;11.574;2024-03-02T12:43:21;16.10;;;14.50;;
8102;SDS011;4094;49.948;11.574;2024-03-02T12:46:11;16.00;;;14.30;;
8102;SDS011;4094;49.948;11.574;2024-03-02T12:49:05;15.77;;;14.10;;
8102;SDS011;4094;49.948;11.574;2024-03-02T12:51:58;15.70;;;14.10;;
8102;SDS011;4094;49.948;11.574;2024-03-02T12:54:49;16.30;;;14.67;;
8102;SDS011;4094;49.948;11.574;2024-03-02T12:57:40;16.30;;;14.70;;
8102;SDS011;4094;49.948;11.574;2024-03-02T13:00:32;17.07;;;15.47;;
8102;SDS011;4094;49.948;11.574;2024-03-02T13:03:22;17.77;;;16.07;;
8102;SDS011;4094;49.948;11.574;2024-03-02T13:06:11;19.50;;;17.50;;
8102;SDS011;4094;49.948;11.574;2024-03-02T13:09:01;19.10;;;17.20;;
8102;SDS011;4094;49.948;11.574;2024-03-02T13:11:53;20.57;;;18.57;;
8102;SDS011;4094;49.948;11.574;2024-03-02T13:14:44;19.77;;;17.73;;
8102;SDS011;4094;49.948;11.574;2024-03-02T13:17:36;19.97;;;17.97;;
8102;SDS011;4094;49.948;11.574;2024-03-02T13:20:29;21.23;;;19.03;;
8102;SDS011;4094;49.948;11.574;2024-03-02T13:23:19;20.40;;;18.27;;
8102;SDS011;4094;49.948;11.574;2024-03-02T13:26:09;20.57;;;18.47;;
8102;SDS011;4094;49.948;11.574;2024-03-02T13:29:01;21.80;;;19.50;;
8102;SDS011;4094;49.948;11.574;2024-03-02T13:31:50;21.10;;;19.00;;
8102;SDS011;4094;49.948;11.574;2024-03-02T13:34:40;22.73;;;18.83;;
8102;SDS011;4094;49.948;11.574;2024-03-02T13:37:29;21.33;;;19.13;;
8102;SDS011;4094;49.948;11.574;2024-03-02T13:40:18;20.90;;;18.53;;
8102;SDS011;4094;49.948;11.574;2024-03-02T13:43:08;21.93;;;19.60;;
8102;SDS011;4094;49.948;11.574;2024-03-02T13:45:59;21.20;;;18.93;;
8102;SDS011;4094;49.948;11.574;2024-03-02T13:48:51;21.37;;;19.17;;
8102;SDS011;4094;49.948;11.574;2024-03-02T13:51:44;22.83;;;20.43;;
8102;SDS011;4094;49.948;11.574;2024-03-02T13:54:36;22.10;;;19.43;;
8102;SDS011;4094;49.948;11.574;2024-03-02T13:57:25;21.10;;;18.90;;
8102;SDS011;4094;49.948;11.574;2024-03-02T14:00:15;22.97;;;19.70;;
8102;SDS011;4094;49.948;11.574;2024-03-02T14:03:07;20.67;;;18.47;;
8102;SDS011;4094;49.948;11.574;2024-03-02T14:05:56;20.63;;;18.20;;
8102;SDS011;4094;49.948;11.574;2024-03-02T14:08:45;20.77;;;18.57;;
8102;SDS011;4094;49.948;11.574;2024-03-02T14:11:35;20.10;;;17.93;;
8102;SDS011;4094;49.948;11.574;2024-03-02T14:14:24;21.23;;;18.93;;
8102;SDS011;4094;49.948;11.574;2024-03-02T14:17:13;22.10;;;19.73;;
8102;SDS011;4094;49.948;11.574;2024-03-02T14:20:05;21.27;;;19.00;;
8102;SDS011;4094;49.948;11.574;2024-03-02T14:22:55;20.27;;;18.30;;
8102;SDS011;4094;49.948;11.574;2024-03-02T14:25:44;21.77;;;19.50;;
8102;SDS011;4094;49.948;11.574;2024-03-02T14:28:33;22.17;;;19.77;;
8102;SDS011;4094;49.948;11.574;2024-03-02T14:31:37;20.97;;;18.87;;
8102;SDS011;4094;49.948;11.574;2024-03-02T14:34:26;22.23;;;19.87;;
8102;SDS011;4094;49.948;11.574;2024-03-02T14:37:17;21.07;;;18.87;;
8102;SDS011;4094;49.948;11.574;2024-03-02T14:40:07;21.47;;;19.23;;
8102;SDS011;4094;49.948;11.574;2024-03-02T14:42:57;20.60;;;18.47;;
8102;SDS011;4094;49.948;11.574;2024-03-02T14:45:46;20.47;;;18.37;;
8102;SDS011;4094;49.948;11.574;2024-03-02T14:48:36;21.17;;;18.80;;
8102;SDS011;4094;49.948;11.574;2024-03-02T14:51:25;19.90;;;17.87;;
8102;SDS011;4094;49.948;11.574;2024-03-02T14:54:16;21.97;;;18.37;;
8102;SDS011;4094;49.948;11.574;2024-03-02T14:57:06;20.37;;;18.27;;
8102;SDS011;4094;49.948;11.574;2024-03-02T14:59:55;19.40;;;17.33;;
8102;SDS011;4094;49.948;11.574;2024-03-02T15:02:44;20.13;;;18.07;;
8102;SDS011;4094;49.948;11.574;2024-03-02T15:05:34;20.30;;;18.20;;
8102;SDS011;4094;49.948;11.574;2024-03-02T15:08:23;19.07;;;17.07;;
8102;SDS011;4094;49.948;11.574;2024-03-02T15:11:14;19.00;;;17.03;;
8102;SDS011;4094;49.948;11.574;2024-03-02T15:14:03;20.20;;;18.13;;
8102;SDS011;4094;49.948;11.574;2024-03-02T15:16:53;19.07;;;17.27;;
8102;SDS011;4094;49.948;11.574;2024-03-02T15:19:43;19.87;;;17.77;;
8102;SDS011;4094;49.948;11.574;2024-03-02T15:22:33;19.47;;;17.40;;
8102;SDS011;4094;49.948;11.574;2024-03-02T15:25:22;18.63;;;16.73;;
8102;SDS011;4094;49.948;11.574;2024-03-02T15:28:12;19.13;;;17.13;;
8102;SDS011;4094;49.948;11.574;2024-03-02T15:31:02;18.40;;;16.50;;
8102;SDS011;4094;49.948;11.574;2024-03-02T15:33:51;18.57;;;16.77;;
8102;SDS011;4094;49.948;11.574;2024-03-02T15:36:43;17.97;;;16.17;;
8102;SDS011;4094;49.948;11.574;2024-03-02T15:39:32;18.37;;;16.57;;
8102;SDS011;4094;49.948;11.574;2024-03-02T15:42:21;18.60;;;16.70;;
8102;SDS011;4094;49.948;11.574;2024-03-02T15:45:12;18.73;;;16.80;;
8102;SDS011;4094;49.948;11.574;2024-03-02T15:48:02;17.43;;;15.73;;
8102;SDS011;4094;49.948;11.574;2024-03-02T15:50:51;18.33;;;16.50;;
8102;SDS011;4094;49.948;11.574;2024-03-02T15:53:40;16.73;;;15.13;;
8102;SDS011;4094;49.948;11.574;2024-03-02T15:56:29;18.07;;;16.17;;
8102;SDS011;4094;49.948;11.574;2024-03-02T15:59:19;17.03;;;15.43;;
8102;SDS011;4094;49.948;11.574;2024-03-02T16:02:09;17.70;;;16.00;;
8102;SDS011;4094;49.948;11.574;2024-03-02T16:04:59;17.77;;;15.97;;
8102;SDS011;4094;49.948;11.574;2024-03-02T16:07:48;17.10;;;15.47;;
8102;SDS011;4094;49.948;11.574;2024-03-02T16:10:40;16.57;;;15.07;;
8102;SDS011;4094;49.948;11.574;2024-03-02T16:13:29;17.07;;;15.40;;
8102;SDS011;4094;49.948;11.574;2024-03-02T16:16:19;16.83;;;15.13;;
8102;SDS011;4094;49.948;11.574;2024-03-02T16:19:11;16.30;;;14.80;;
8102;SDS011;4094;49.948;11.574;2024-03-02T16:22:11;16.43;;;14.73;;
8102;SDS011;4094;49.948;11.574;2024-03-02T16:25:01;16.43;;;14.83;;
8102;SDS011;4094;49.948;11.574;2024-03-02T16:27:50;16.77;;;15.07;;
8102;SDS011;4094;49.948;11.574;2024-03-02T16:30:40;17.50;;;15.70;;
8102;SDS011;4094;49.948;11.574;2024-03-02T16:33:29;15.87;;;14.27;;
8102;SDS011;4094;49.948;11.574;2024-03-02T16:36:20;16.13;;;14.70;;
8102;SDS011;4094;49.948;11.574;2024-03-02T16:39:11;14.73;;;13.47;;
8102;SDS011;4094;49.948;11.574;2024-03-02T16:42:00;16.10;;;14.60;;
8102;SDS011;4094;49.948;11.574;2024-03-02T16:44:50;15.33;;;13.93;;
8102;SDS011;4094;49.948;11.574;2024-03-02T16:47:41;15.73;;;14.33;;
8102;SDS011;4094;49.948;11.574;2024-03-02T16:50:30;15.60;;;14.20;;